Time;durP1;ratioP1;P1;durP2;ratioP2;P2;SDS_P1;SDS_P2;PMS_P1;PMS_P2;Temp;Humidity;BMP_temperature;BMP_pressure;BME280_temperature;BME280_humidity;BME280_pressure;Samples;Min_cycle;Max_cycle;Signal;HPM_P1;HPM_P2
2023/08/11 00:02:15;;;;;;;12.80;6.00;;;;;;;22.36;100.00;100790.60;107182;1282;59144;-79
2023/08/11 00:04:41;;;;;;;11.70;5.90;;;;;;;22.36;100.00;100788.79;106809;1283;59046;-79
2023/08/11 00:07:06;;;;;;;10.30;5.20;;;;;;;22.38;100.00;100792.48;106793;1283;59639;-79
2023/08/11 00:09:32;;;;;;;9.60;5.20;;;;;;;22.40;100.00;100795.46;107139;1282;59043;-79
2023/08/11 00:11:57;;;;;;;17.00;5.30;;;;;;;22.41;100.00;100799.50;107099;1282;60164;-79
2023/08/11 00:14:23;;;;;;;13.20;5.20;;;;;;;22.47;100.00;100803.79;106907;1282;59139;-79
2023/08/11 00:16:48;;;;;;;8.90;5.20;;;;;;;22.51;100.00;100807.09;106683;1283;59349;-78
2023/08/11 00:19:14;;;;;;;11.50;5.50;;;;;;;22.55;100.00;100807.86;107101;1282;59058;-78
2023/08/11 00:21:39;;;;;;;11.00;4.80;;;;;;;22.58;100.00;100802.63;106791;1283;59086;-80
2023/08/11 00:24:05;;;;;;;8.40;4.80;;;;;;;22.60;100.00;100789.21;107038;1283;73730;-79
2023/08/11 00:26:30;;;;;;;5.90;4.00;;;;;;;22.59;100.00;100783.23;107107;1282;59402;-79
2023/08/11 00:28:57;;;;;;;10.00;4.70;;;;;;;22.61;100.00;100780.63;107132;1282;59440;-79
2023/08/11 00:31:22;;;;;;;9.40;4.80;;;;;;;22.63;100.00;100784.62;106740;1283;59236;-79
2023/08/11 00:33:51;;;;;;;7.70;4.70;;;;;;;22.64;100.00;100791.00;107139;1282;59077;-79
2023/08/11 00:36:17;;;;;;;7.20;4.60;;;;;;;22.68;100.00;100794.07;107153;1282;58985;-79
2023/08/11 00:38:43;;;;;;;8.20;4.90;;;;;;;22.72;100.00;100793.66;107153;1282;59021;-79
2023/08/11 00:41:09;;;;;;;10.00;4.70;;;;;;;22.71;100.00;100796.05;107143;1282;59041;-79
2023/08/11 00:43:35;;;;;;;12.60;5.00;;;;;;;22.69;100.00;100803.11;107105;1282;58963;-79
2023/08/11 00:49:22;;;;;;;13.40;5.10;;;;;;;22.67;100.00;100793.79;107097;1282;72159;-80
2023/08/11 00:51:48;;;;;;;8.90;4.90;;;;;;;22.69;100.00;100794.64;107134;1282;59257;-79
2023/08/11 00:54:15;;;;;;;11.00;5.30;;;;;;;22.71;100.00;100787.10;107107;1282;58985;-79
2023/08/11 00:56:45;;;;;;;12.10;5.20;;;;;;;22.72;100.00;100779.92;107140;1282;59277;-79
2023/08/11 00:59:19;;;;;;;12.10;5.50;;;;;;;22.72;100.00;100777.48;107154;1282;75630;-78
2023/08/11 01:01:45;;;;;;;14.30;5.20;;;;;;;22.71;100.00;100783.23;107087;1282;74330;-79
2023/08/11 01:04:12;;;;;;;14.40;5.40;;;;;;;22.67;100.00;100787.35;107127;1282;59084;-78
2023/08/11 01:06:55;;;;;;;17.30;5.80;;;;;;;22.64;100.00;100797.61;107117;1282;59003;-79
2023/08/11 01:09:29;;;;;;;12.20;5.60;;;;;;;22.58;100.00;100809.06;107142;1282;61747;-79
2023/08/11 01:12:25;;;;;;;10.70;5.60;;;;;;;22.57;100.00;100815.39;106766;1282;75207;-79
2023/08/11 01:18:14;;;;;;;12.10;5.50;;;;;;;22.53;100.00;100823.88;107124;1282;72395;-78
2023/08/11 01:20:40;;;;;;;18.00;5.20;;;;;;;22.55;100.00;100821.30;106782;1283;60620;-79
2023/08/11 01:23:07;;;;;;;13.20;6.20;;;;;;;22.58;100.00;100822.50;107162;1282;59023;-78
2023/08/11 01:25:34;;;;;;;10.30;5.90;;;;;;;22.59;100.00;100842.63;107132;1282;75298;-79
2023/08/11 01:28:00;;;;;;;11.60;6.40;;;;;;;22.59;100.00;100850.06;106429;1283;59127;-78
2023/08/11 01:30:27;;;;;;;10.70;6.00;;;;;;;22.65;100.00;100853.21;106750;1283;59163;-79
2023/08/11 01:32:52;;;;;;;12.10;5.90;;;;;;;22.69;100.00;100857.59;106760;1282;59141;-78
2023/08/11 01:35:21;;;;;;;10.90;5.70;;;;;;;22.69;100.00;100869.70;107124;1282;59069;-78
2023/08/11 01:37:50;;;;;;;13.40;6.30;;;;;;;22.72;100.00;100869.89;107123;1282;75201;-78
2023/08/11 01:40:16;;;;;;;10.60;5.90;;;;;;;22.75;100.00;100857.83;107169;1282;73945;-78
2023/08/11 01:42:43;;;;;;;12.30;6.50;;;;;;;22.72;100.00;100850.39;106863;1283;59087;-78
2023/08/11 01:45:11;;;;;;;13.80;6.30;;;;;;;22.67;100.00;100840.41;107130;1282;59039;-78
2023/08/11 01:47:38;;;;;;;11.20;6.70;;;;;;;22.65;100.00;100834.22;107160;1282;60073;-78
2023/08/11 01:50:06;;;;;;;12.70;6.80;;;;;;;22.65;100.00;100823.95;106772;1285;75848;-78
2023/08/11 01:52:34;;;;;;;13.90;6.90;;;;;;;22.69;100.00;100816.77;107121;1282;74263;-78
2023/08/11 01:55:00;;;;;;;9.90;6.70;;;;;;;22.65;100.00;100822.13;107104;1282;73357;-78
2023/08/11 01:57:26;;;;;;;17.80;7.10;;;;;;;22.63;100.00;100820.27;106781;1285;59005;-78
2023/08/11 01:59:52;;;;;;;12.70;6.80;;;;;;;22.61;100.00;100821.75;107140;1282;59245;-78
2023/08/11 02:02:18;;;;;;;9.60;6.60;;;;;;;22.59;100.00;100820.63;106769;1285;59121;-78
2023/08/11 02:04:45;;;;;;;12.90;7.00;;;;;;;22.56;100.00;100817.80;107102;1282;59362;-79
2023/08/11 02:07:10;;;;;;;13.10;6.70;;;;;;;22.52;100.00;100820.16;106787;1283;59049;-78
2023/08/11 02:09:36;;;;;;;12.70;6.80;;;;;;;22.49;100.00;100809.10;107097;1282;59193;-78
2023/08/11 02:12:02;;;;;;;14.90;7.30;;;;;;;22.45;100.00;100806.33;106781;1285;59218;-78
2023/08/11 02:14:28;;;;;;;14.70;7.30;;;;;;;22.42;100.00;100801.73;107143;1282;73214;-78
